Time;durP1;ratioP1;P1;durP2;ratioP2;P2;SDS_P1;SDS_P2;PMS_P1;PMS_P2;Temp;Humidity;BMP_temperature;BMP_pressure;BME280_temperature;BME280_humidity;BME280_pressure;Samples;Min_cycle;Max_cycle;Signal;HPM_P1;HPM_P2
2021/01/03 00:01:45;;;;;;;9.05;4.05;;;3.50;99.90;;;;;;5034394;28;20113;-69
2021/01/03 00:04:10;;;;;;;3.33;2.70;;;3.50;99.90;;;;;;5031753;28;20042;-69
2021/01/03 00:06:36;;;;;;;4.73;3.73;;;3.60;99.90;;;;;;5029071;28;20018;-69
2021/01/03 00:09:02;;;;;;;10.83;4.03;;;3.60;99.90;;;;;;5031711;28;20476;-69
2021/01/03 00:11:28;;;;;;;8.93;4.20;;;3.60;99.90;;;;;;5025626;28;20164;-69
2021/01/03 00:13:54;;;;;;;7.43;4.07;;;3.60;99.90;;;;;;5012214;28;20125;-69
2021/01/03 00:16:19;;;;;;;5.10;3.43;;;3.50;99.90;;;;;;5021006;28;20059;-69
2021/01/03 00:18:45;;;;;;;17.90;5.47;;;3.50;99.90;;;;;;5015863;28;20037;-69
2021/01/03 00:21:11;;;;;;;6.38;3.72;;;3.50;99.90;;;;;;5022273;28;20034;-69
2021/01/03 00:23:37;;;;;;;4.80;3.60;;;3.60;99.90;;;;;;5022629;28;20646;-70
2021/01/03 00:26:03;;;;;;;11.40;5.70;;;3.60;99.90;;;;;;5023366;28;20037;-70
2021/01/03 00:28:29;;;;;;;4.20;1.73;;;3.60;99.90;;;;;;5016290;28;20025;-69
2021/01/03 00:30:55;;;;;;;9.17;2.87;;;3.50;99.90;;;;;;5017419;28;20034;-70
2021/01/03 00:33:20;;;;;;;3.10;2.37;;;3.50;99.90;;;;;;5015574;28;20405;-69
2021/01/03 00:35:46;;;;;;;9.43;4.50;;;3.50;99.90;;;;;;5015474;28;20082;-69
2021/01/03 00:38:12;;;;;;;5.23;3.60;;;3.50;99.90;;;;;;5023766;28;20030;-70
2021/01/03 00:40:38;;;;;;;8.25;2.75;;;3.50;99.90;;;;;;5011577;28;20061;-69
2021/01/03 00:43:06;;;;;;;8.70;4.17;;;3.50;99.90;;;;;;5015477;28;20030;-69
2021/01/03 00:45:32;;;;;;;6.53;4.13;;;3.60;99.90;;;;;;5014605;28;20100;-70
2021/01/03 00:47:58;;;;;;;6.53;4.53;;;3.50;99.90;;;;;;5026516;28;20029;-70
2021/01/03 00:50:25;;;;;;;5.70;5.10;;;3.50;99.90;;;;;;5016693;28;20018;-69
2021/01/03 00:52:51;;;;;;;11.38;5.22;;;3.50;99.90;;;;;;5017551;28;20029;-69
2021/01/03 00:55:17;;;;;;;6.65;4.60;;;3.50;99.90;;;;;;5015603;28;20080;-69
2021/01/03 00:57:43;;;;;;;;;;;3.50;99.90;;;;;;5015267;28;20101;-69
2021/01/03 01:00:21;;;;;;;3.60;2.93;;;3.40;99.90;;;;;;5027472;28;19987;-70
2021/01/03 01:02:46;;;;;;;5.03;3.05;;;3.50;99.90;;;;;;5018857;28;20058;-70
2021/01/03 01:05:14;;;;;;;7.97;4.47;;;3.50;99.90;;;;;;5015172;28;20050;-69
2021/01/03 01:07:41;;;;;;;6.22;3.65;;;3.50;99.90;;;;;;5000858;28;20041;-70
2021/01/03 01:10:07;;;;;;;;;;;3.50;99.90;;;;;;5017412;28;20022;-69
2021/01/03 01:12:34;;;;;;;;;;;3.40;99.90;;;;;;5019778;28;20270;-70
2021/01/03 01:15:03;;;;;;;2.50;2.33;;;3.50;99.90;;;;;;5023039;28;20223;-69
2021/01/03 01:17:28;;;;;;;4.20;3.60;;;3.40;99.90;;;;;;5023900;28;20113;-69
2021/01/03 01:19:54;;;;;;;4.97;3.88;;;3.40;99.90;;;;;;5025451;28;20104;-70
2021/01/03 01:22:19;;;;;;;8.30;5.40;;;3.40;99.90;;;;;;5023682;28;20420;-69
2021/01/03 01:24:45;;;;;;;5.77;4.87;;;3.40;99.90;;;;;;5036392;28;20324;-69
2021/01/03 01:27:11;;;;;;;3.72;3.08;;;3.50;99.90;;;;;;5027951;28;20030;-70
2021/01/03 01:29:36;;;;;;;4.17;3.80;;;3.40;99.90;;;;;;5040797;28;20028;-69
2021/01/03 01:32:02;;;;;;;8.10;3.17;;;3.40;99.90;;;;;;5015658;28;20026;-69
2021/01/03 01:34:28;;;;;;;5.70;4.00;;;3.40;99.90;;;;;;5012853;28;20026;-69
2021/01/03 01:36:53;;;;;;;9.60;4.93;;;3.40;99.90;;;;;;5009181;28;20384;-69
2021/01/03 01:39:19;;;;;;;7.47;3.50;;;3.40;99.90;;;;;;5010159;28;20026;-69
2021/01/03 01:41:45;;;;;;;13.87;3.27;;;3.40;99.90;;;;;;5012872;28;20064;-69
2021/01/03 01:44:11;;;;;;;4.47;2.67;;;3.40;99.90;;;;;;5014411;28;20010;-70
2021/01/03 01:46:48;;;;;;;9.05;5.07;;;3.40;99.90;;;;;;5013473;28;20079;-70
2021/01/03 01:49:15;;;;;;;4.15;3.75;;;3.40;99.90;;;;;;5013426;28;20329;-69
2021/01/03 01:51:44;;;;;;;13.07;5.38;;;3.40;99.90;;;;;;5012962;28;20367;-70
2021/01/03 01:54:25;;;;;;;5.88;3.80;;;3.30;99.90;;;;;;5005807;28;20029;-69
2021/01/03 01:57:02;;;;;;;15.32;3.50;;;3.30;99.90;;;;;;5001651;28;20052;-69
2021/01/03 01:59:37;;;;;;;9.13;4.18;;;3.30;99.90;;;;;;5015322;28;20077;-71
2021/01/03 02:02:27;;;;;;;7.80;5.75;;;3.30;99.90;;;;;;5001540;28;20429;-70
2021/01/03 02:05:18;;;;;;;6.75;3.70;;;3.40;99.90;;;;;;5012798;28;20290;-70
2021/01/03 02:08:07;;;;;;;8.13;4.13;;;3.30;99.90;;;;;;5013541;28;20468;-70
2021/01/03 02:10:40;;;;;;;9.65;4.53;;;3.40;99.90;;;;;;5007617;28;20400;-70
2021/01/03 02:13:30;;;;;;;7.82;4.85;;;3.40;99.90;;;;;;5004506;28;20013;-70
2021/01/03 02:16:07;;;;;;;4.18;3.88;;;3.40;99.90;;;;;;5009123;28;20017;-69
2021/01/03 02:18:33;;;;;;;10.18;5.00;;;3.40;99.90;;;;;;5010628;28;20025;-69
2021/01/03 02:21:12;;;;;;;6.55;4.03;;;3.40;99.90;;;;;;5003879;28;20365;-69
2021/01/03 02:24:11;;;;;;;9.80;5.47;;;3.40;99.90;;;;;;5014208;28;20113;-69
2021/01/03 02:26:45;;;;;;;5.00;2.83;;;3.40;99.90;;;;;;5011804;28;20313;-69
2021/01/03 02:29:13;;;;;;;5.38;3.58;;;3.40;99.90;;;;;;5013061;28;20333;-69
2021/01/03 02:31:47;;;;;;;3.83;3.53;;;3.40;99.90;;;;;;5013069;28;20026;-70
2021/01/03 02:34:20;;;;;;;7.35;4.30;;;3.40;99.90;;;;;;5006500;28;20034;-69
2021/01/03 02:36:51;;;;;;;9.20;3.05;;;3.40;99.90;;;;;;5013657;28;20472;-70
2021/01/03 02:39:23;;;;;;;3.17;2.55;;;3.40;99.90;;;;;;5017103;28;20029;-70
2021/01/03 02:41:54;;;;;;;11.13;4.10;;;3.40;99.90;;;;;;5027315;28;20034;-70
2021/01/03 02:44:19;;;;;;;10.23;5.28;;;3.40;99.90;;;;;;5018788;28;20022;-70
2021/01/03 02:46:45;;;;;;;10.32;4.30;;;3.40;99.90;;;;;;5021495;28;20111;-69
2021/01/03 02:49:12;;;;;;;7.20;3.57;;;3.40;99.90;;;;;;5021545;28;20364;-69
2021/01/03 02:51:40;;;;;;;2.55;2.35;;;3.40;99.90;;;;;;5015955;28;20041;-69
2021/01/03 02:54:07;;;;;;;;;;;3.40;99.90;;;;;;5015944;28;20420;-70
2021/01/03 02:56:33;;;;;;;5.53;3.72;;;3.40;99.90;;;;;;5021343;28;19933;-69
2021/01/03 02:58:58;;;;;;;6.90;3.20;;;3.40;99.90;;;;;;5031949;28;20114;-70
2021/01/03 03:01:24;;;;;;;9.00;4.83;;;3.40;99.90;;;;;;5011857;28;20132;-69
2021/01/03 03:03:49;;;;;;;9.17;5.00;;;3.50;99.90;;;;;;5013703;28;20026;-70
2021/01/03 03:06:15;;;;;;;6.13;1.63;;;3.40;99.90;;;;;;5015188;28;20267;-69
2021/01/03 03:08:41;;;;;;;5.43;4.83;;;3.40;99.90;;;;;;5017342;28;20029;-70
2021/01/03 03:11:07;;;;;;;5.00;4.23;;;3.40;99.90;;;;;;5015471;28;20073;-69
2021/01/03 03:13:33;;;;;;;3.43;3.13;;;3.40;99.90;;;;;;5007875;28;20022;-69
2021/01/03 03:15:58;;;;;;;19.63;3.93;;;3.40;99.90;;;;;;5013084;28;20030;-70
2021/01/03 03:18:24;;;;;;;5.73;4.67;;;3.40;99.90;;;;;;5017181;28;20117;-69
2021/01/03 03:20:50;;;;;;;3.03;2.53;;;3.40;99.90;;;;;;5019333;28;20030;-69
2021/01/03 03:23:15;;;;;;;6.10;2.70;;;3.40;99.90;;;;;;5026782;28;20021;-69
2021/01/03 03:25:41;;;;;;;1.53;1.43;;;3.40;99.90;;;;;;5019020;28;20101;-69
2021/01/03 03:28:07;;;;;;;4.53;4.13;;;3.40;99.90;;;;;;5020004;28;20101;-69
2021/01/03 03:30:33;;;;;;;6.30;3.45;;;3.40;99.90;;;;;;5026523;28;20080;-70
2021/01/03 03:32:59;;;;;;;12.47;5.67;;;3.40;99.90;;;;;;5007604;28;20040;-69
2021/01/03 03:35:30;;;;;;;11.27;4.53;;;3.40;99.90;;;;;;5018571;28;20075;-69
2021/01/03 03:37:57;;;;;;;5.00;4.30;;;3.40;99.90;;;;;;5029333;28;20448;-70
2021/01/03 03:40:24;;;;;;;2.97;2.55;;;3.40;99.90;;;;;;5025279;28;20033;-69
2021/01/03 03:42:50;;;;;;;;;;;3.30;99.90;;;;;;5017311;28;20088;-70
2021/01/03 03:45:16;;;;;;;5.22;2.72;;;3.30;99.90;;;;;;5020548;28;19909;-69
2021/01/03 03:47:42;;;;;;;10.57;4.68;;;3.30;99.90;;;;;;5014247;28;20325;-70
2021/01/03 03:50:13;;;;;;;7.80;5.60;;;3.30;99.90;;;;;;5015953;28;20075;-69
2021/01/03 03:52:39;;;;;;;4.45;2.28;;;3.30;99.90;;;;;;5017461;28;20045;-69
2021/01/03 03:55:06;;;;;;;1.73;1.63;;;3.20;99.90;;;;;;5020864;28;20060;-69
2021/01/03 03:57:32;;;;;;;9.63;3.80;;;3.30;99.90;;;;;;5019476;28;20022;-70
2021/01/03 03:59:58;;;;;;;8.77;4.78;;;3.30;99.90;;;;;;5016092;28;20060;-69
2021/01/03 04:02:23;;;;;;;4.60;3.67;;;3.30;99.90;;;;;;5026588;28;20097;-69
2021/01/03 04:04:49;;;;;;;3.22;2.95;;;3.20;99.90;;;;;;5029502;28;20034;-69
2021/01/03 04:07:15;;;;;;;5.70;4.23;;;3.20;99.90;;;;;;5034960;28;20029;-69
2021/01/03 04:09:40;;;;;;;8.93;2.30;;;3.20;99.90;;;;;;5032369;28;20025;-70
2021/01/03 04:12:06;;;;;;;9.20;4.60;;;3.30;99.90;;;;;;5032477;28;20033;-69
2021/01/03 04:14:32;;;;;;;8.63;4.07;;;3.20;99.90;;;;;;5019308;28;20057;-69
2021/01/03 04:17:00;;;;;;;12.93;3.75;;;3.20;99.90;;;;;;5030123;28;20026;-70
2021/01/03 04:19:27;;;;;;;4.22;3.17;;;3.30;99.90;;;;;;5026258;28;20057;-70
2021/01/03 04:21:58;;;;;;;6.82;2.80;;;3.20;99.90;;;;;;5031253;28;20037;-70
2021/01/03 04:24:26;;;;;;;4.95;4.03;;;3.20;99.90;;;;;;5047227;28;20030;-70
2021/01/03 04:27:00;;;;;;;12.48;4.38;;;3.20;99.90;;;;;;5026928;28;20643;-69
2021/01/03 04:29:26;;;;;;;7.50;4.43;;;3.20;99.90;;;;;;5030405;28;20030;-69
2021/01/03 04:31:56;;;;;;;5.70;3.40;;;3.20;99.90;;;;;;5033241;28;20026;-69
2021/01/03 04:34:23;;;;;;;7.75;4.35;;;3.20;99.90;;;;;;5027433;28;20302;-69
2021/01/03 04:36:50;;;;;;;9.35;5.18;;;3.20;99.90;;;;;;5014101;28;20496;-69
2021/01/03 04:39:17;;;;;;;12.88;4.10;;;3.30;99.90;;;;;;5020112;28;20044;-69
2021/01/03 04:41:43;;;;;;;9.10;5.15;;;3.20;99.90;;;;;;5029818;28;20053;-69
2021/01/03 04:44:16;;;;;;;5.35;3.38;;;3.20;99.90;;;;;;5019103;28;20076;-70
2021/01/03 04:46:42;;;;;;;7.32;3.83;;;3.20;99.90;;;;;;5016792;28;20324;-70
2021/01/03 04:49:24;;;;;;;9.43;5.47;;;3.20;99.90;;;;;;5021186;28;20026;-69
2021/01/03 04:52:31;;;;;;;4.88;2.70;;;3.20;99.90;;;;;;5013352;28;20079;-70
2021/01/03 04:55:27;;;;;;;11.88;3.67;;;3.20;99.90;;;;;;4995723;28;20056;-69
2021/01/03 04:58:34;;;;;;;5.82;5.13;;;3.20;99.90;;;;;;5002641;28;20037;-69
2021/01/03 05:01:31;;;;;;;23.33;5.28;;;3.20;99.90;;;;;;5015856;28;20037;-69
2021/01/03 05:04:51;;;;;;;5.25;2.63;;;3.20;99.90;;;;;;5014106;28;20121;-70
2021/01/03 05:07:30;;;;;;;10.38;4.75;;;3.20;99.90;;;;;;5012236;28;20413;-69
2021/01/03 05:10:16;;;;;;;2.55;2.35;;;3.20;99.90;;;;;;5035762;28;20357;-70
2021/01/03 05:13:17;;;;;;;10.63;6.55;;;3.20;99.90;;;;;;5030271;28;20037;-69
2021/01/03 05:15:43;;;;;;;11.82;4.40;;;3.20;99.90;;;;;;5021065;28;20038;-69
2021/01/03 05:18:09;;;;;;;2.38;2.22;;;3.20;99.90;;;;;;5013311;28;20036;-69
2021/01/03 05:20:34;;;;;;;15.30;3.50;;;3.20;99.90;;;;;;5013445;28;20097;-69
2021/01/03 05:23:21;;;;;;;8.07;4.37;;;3.30;99.90;;;;;;5022526;28;20030;-69
2021/01/03 05:25:48;;;;;;;29.02;3.67;;;3.20;99.90;;;;;;5012758;28;20033;-69
2021/01/03 05:28:19;;;;;;;16.85;5.53;;;3.30;99.90;;;;;;5021823;28;20025;-69
2021/01/03 05:30:46;;;;;;;6.65;3.17;;;3.20;99.90;;;;;;5019424;28;20026;-70
2021/01/03 05:33:21;;;;;;;3.38;3.08;;;3.30;99.90;;;;;;5017030;28;20029;-69
2021/01/03 05:35:47;;;;;;;8.15;4.57;;;3.30;99.90;;;;;;5020902;28;20038;-70
2021/01/03 05:38:37;;;;;;;7.32;4.20;;;3.30;99.90;;;;;;5016550;28;20026;-69
2021/01/03 05:41:15;;;;;;;4.25;3.85;;;3.20;99.90;;;;;;5021717;28;20328;-70
2021/01/03 05:43:42;;;;;;;3.40;3.10;;;3.20;99.90;;;;;;5023705;28;20021;-70
2021/01/03 05:46:13;;;;;;;13.30;4.32;;;3.20;99.90;;;;;;5019020;28;20049;-69
2021/01/03 05:49:04;;;;;;;8.93;5.65;;;3.20;99.90;;;;;;5007691;28;20030;-69
2021/01/03 05:51:38;;;;;;;8.38;4.35;;;3.20;99.90;;;;;;5026012;28;20120;-69
2021/01/03 05:54:31;;;;;;;9.15;4.07;;;3.30;99.90;;;;;;5002064;28;20432;-69
2021/01/03 05:57:08;;;;;;;5.13;4.30;;;3.20;99.90;;;;;;5004188;28;20421;-69
2021/01/03 05:59:37;;;;;;;5.25;3.95;;;3.20;99.90;;;;;;5008818;28;20056;-70
2021/01/03 06:02:08;;;;;;;4.18;2.72;;;3.20;99.90;;;;;;5011274;28;20436;-69
2021/01/03 06:04:34;;;;;;;16.90;4.60;;;3.20;99.90;;;;;;5017467;28;20429;-70
2021/01/03 06:07:07;;;;;;;1.60;1.52;;;3.20;99.90;;;;;;5016040;28;20108;-70
2021/01/03 06:09:39;;;;;;;6.72;5.00;;;3.20;99.90;;;;;;5020112;28;20029;-69
2021/01/03 06:12:20;;;;;;;4.47;3.63;;;3.20;99.90;;;;;;5008862;28;20325;-70
2021/01/03 06:14:52;;;;;;;14.85;8.13;;;3.10;99.90;;;;;;5013874;28;20448;-70
2021/01/03 06:17:26;;;;;;;23.58;7.53;;;3.20;99.90;;;;;;5019086;28;20030;-69
2021/01/03 06:19:58;;;;;;;5.22;4.38;;;3.20;99.90;;;;;;5007414;28;20104;-70
2021/01/03 06:22:38;;;;;;;8.13;4.40;;;3.20;99.90;;;;;;5019514;28;20034;-70
2021/01/03 06:25:42;;;;;;;9.25;4.85;;;3.20;99.90;;;;;;5009820;28;20463;-70
2021/01/03 06:28:15;;;;;;;5.28;4.47;;;3.20;99.90;;;;;;5011251;28;20108;-69
2021/01/03 06:30:49;;;;;;;13.15;5.45;;;3.20;99.90;;;;;;5009976;28;20326;-69
2021/01/03 06:33:27;;;;;;;6.07;3.60;;;3.20;99.90;;;;;;4997992;28;20053;-69
2021/01/03 06:36:18;;;;;;;14.48;6.35;;;3.20;99.90;;;;;;5021900;28;20037;-70
2021/01/03 06:38:55;;;;;;;8.13;5.68;;;3.20;99.90;;;;;;5024553;28;20033;-70
2021/01/03 06:41:34;;;;;;;9.20;5.90;;;3.30;99.90;;;;;;5037711;28;20021;-69
2021/01/03 06:44:14;;;;;;;12.93;4.75;;;3.20;99.90;;;;;;5029883;28;20096;-69
2021/01/03 06:47:17;;;;;;;4.05;3.78;;;3.20;99.90;;;;;;5023273;28;20037;-69
2021/01/03 06:49:43;;;;;;;17.67;6.55;;;3.20;99.90;;;;;;5017372;28;20132;-69
2021/01/03 06:52:24;;;;;;;8.13;6.60;;;3.20;99.90;;;;;;5044447;28;20133;-70
2021/01/03 06:55:18;;;;;;;4.32;3.80;;;3.20;99.90;;;;;;5024176;28;20061;-69
2021/01/03 06:57:49;;;;;;;17.25;5.78;;;3.20;99.90;;;;;;5025598;28;20029;-69
2021/01/03 07:00:18;;;;;;;32.60;5.65;;;3.20;99.90;;;;;;5026446;28;20447;-70
2021/01/03 07:02:55;;;;;;;8.38;4.93;;;3.20;99.90;;;;;;5024214;28;20375;-69
2021/01/03 07:05:21;;;;;;;6.13;3.55;;;3.20;99.90;;;;;;5028797;28;20025;-69
2021/01/03 07:07:58;;;;;;;13.35;4.40;;;3.30;99.90;;;;;;5028737;28;20032;-69
2021/01/03 07:10:35;;;;;;;8.93;5.68;;;3.30;99.90;;;;;;5027550;28;20033;-69
2021/01/03 07:13:01;;;;;;;13.38;4.38;;;3.20;99.90;;;;;;5031109;28;20033;-69
2021/01/03 07:15:27;;;;;;;11.27;5.63;;;3.20;99.90;;;;;;5028287;28;20108;-69
2021/01/03 07:17:56;;;;;;;10.33;6.03;;;3.20;99.90;;;;;;5025586;28;20117;-70
2021/01/03 07:20:32;;;;;;;9.63;4.63;;;3.20;99.90;;;;;;5043504;28;20079;-70
2021/01/03 07:23:43;;;;;;;12.90;4.57;;;3.20;99.90;;;;;;5028092;28;20036;-69
2021/01/03 07:26:30;;;;;;;9.55;4.82;;;3.20;99.90;;;;;;5011685;28;20022;-69
2021/01/03 07:29:06;;;;;;;7.47;5.25;;;3.30;99.90;;;;;;5029847;28;20321;-69
2021/01/03 07:31:35;;;;;;;13.30;5.70;;;3.30;99.90;;;;;;5024955;28;20026;-70
2021/01/03 07:34:04;;;;;;;13.27;6.40;;;3.30;99.90;;;;;;5024170;28;20097;-69
2021/01/03 07:36:44;;;;;;;6.13;4.22;;;3.30;99.90;;;;;;5023577;28;20060;-69
2021/01/03 07:39:31;;;;;;;10.50;4.97;;;3.30;99.90;;;;;;5019360;28;20456;-69
2021/01/03 07:42:24;;;;;;;19.67;6.22;;;3.20;99.90;;;;;;5022325;28;20061;-70
2021/01/03 07:44:51;;;;;;;10.57;5.70;;;3.20;99.90;;;;;;5026901;28;20314;-69
2021/01/03 07:47:52;;;;;;;24.08;5.75;;;3.20;99.90;;;;;;5028057;28;20070;-70
2021/01/03 07:50:30;;;;;;;12.60;6.22;;;3.30;99.90;;;;;;5020818;28;20044;-69
2021/01/03 07:53:34;;;;;;;19.58;6.15;;;3.20;99.90;;;;;;5025321;28;20052;-69
2021/01/03 07:56:26;;;;;;;4.80;3.65;;;3.20;99.90;;;;;;5022200;28;20125;-70
2021/01/03 07:58:57;;;;;;;8.52;6.20;;;3.20;99.90;;;;;;5024158;28;20033;-69
2021/01/03 08:01:29;;;;;;;6.65;3.80;;;3.20;99.90;;;;;;5026415;28;20033;-69
2021/01/03 08:03:55;;;;;;;4.93;4.35;;;3.20;99.90;;;;;;5026899;28;20030;-69
2021/01/03 08:06:21;;;;;;;8.80;4.95;;;3.20;99.90;;;;;;5040053;28;20031;-70
2021/01/03 08:08:56;;;;;;;10.47;8.10;;;3.10;99.90;;;;;;5010996;28;20041;-70
2021/01/03 08:11:40;;;;;;;6.18;3.92;;;3.10;99.90;;;;;;5016580;28;20033;-69
2021/01/03 08:14:13;;;;;;;14.00;4.97;;;3.20;99.90;;;;;;5024189;28;20021;-69
2021/01/03 08:16:40;;;;;;;8.98;5.82;;;3.10;99.90;;;;;;5024276;28;20443;-69
2021/01/03 08:19:08;;;;;;;23.88;5.85;;;3.10;99.90;;;;;;5019685;28;20040;-69
2021/01/03 08:21:42;;;;;;;14.50;5.40;;;3.10;99.90;;;;;;5023622;28;20459;-70
2021/01/03 08:24:11;;;;;;;8.30;4.03;;;3.10;99.90;;;;;;5017824;28;20030;-69
2021/01/03 08:27:23;;;;;;;6.80;5.75;;;3.20;99.90;;;;;;5025389;28;20018;-70
2021/01/03 08:29:58;;;;;;;16.15;5.50;;;3.20;99.90;;;;;;4968202;28;20045;-70
2021/01/03 08:32:30;;;;;;;8.45;6.13;;;3.20;99.90;;;;;;4986434;28;20027;-69
2021/01/03 08:35:11;;;;;;;7.68;5.53;;;3.30;99.90;;;;;;4975799;28;20373;-70
2021/01/03 08:37:46;;;;;;;10.88;6.40;;;3.30;99.90;;;;;;4971252;28;20205;-69
2021/01/03 08:40:40;;;;;;;17.63;6.68;;;3.30;99.90;;;;;;4957435;28;20630;-70
2021/01/03 08:43:13;;;;;;;13.02;5.82;;;3.30;99.90;;;;;;4969885;28;20430;-70
2021/01/03 08:45:42;;;;;;;7.30;4.38;;;3.30;99.90;;;;;;4971761;28;20054;-70
2021/01/03 08:48:12;;;;;;;5.95;4.88;;;3.30;99.90;;;;;;4973805;28;20050;-69
2021/01/03 08:50:40;;;;;;;8.93;6.22;;;3.30;99.90;;;;;;4974908;28;20069;-69
2021/01/03 08:53:18;;;;;;;8.88;4.47;;;3.30;99.90;;;;;;4860708;28;20138;-69
2021/01/03 08:55:44;;;;;;;9.93;6.22;;;3.30;99.90;;;;;;4823544;28;20054;-70
2021/01/03 08:58:18;;;;;;;9.82;6.85;;;3.30;99.90;;;;;;4823424;28;20117;-70
2021/01/03 09:00:48;;;;;;;15.27;6.07;;;3.30;99.90;;;;;;4846062;28;20045;-70
2021/01/03 09:03:18;;;;;;;9.25;5.97;;;3.30;99.90;;;;;;4859272;28;20034;-69
2021/01/03 09:05:46;;;;;;;4.88;4.47;;;3.40;99.90;;;;;;5023729;28;20159;-70
2021/01/03 09:08:29;;;;;;;5.55;3.42;;;3.30;99.90;;;;;;5027849;28;20029;-70
2021/01/03 09:11:09;;;;;;;9.45;4.85;;;3.40;99.90;;;;;;5026800;28;20337;-69
2021/01/03 09:13:48;;;;;;;11.60;5.35;;;3.40;99.90;;;;;;5025725;28;20038;-70
2021/01/03 09:16:34;;;;;;;10.57;4.38;;;3.40;99.90;;;;;;5027819;28;20033;-70
2021/01/03 09:19:15;;;;;;;14.00;6.95;;;3.40;99.90;;;;;;5011121;28;20108;-69
2021/01/03 09:21:57;;;;;;;10.07;5.65;;;3.40;99.90;;;;;;5011824;28;20053;-69
2021/01/03 09:24:32;;;;;;;9.73;6.75;;;3.40;99.90;;;;;;5018717;28;20072;-70
2021/01/03 09:27:00;;;;;;;16.35;5.93;;;3.40;99.90;;;;;;5020975;28;20042;-70
2021/01/03 09:29:32;;;;;;;9.60;5.70;;;3.50;99.90;;;;;;5020089;28;20029;-70
2021/01/03 09:32:11;;;;;;;6.30;5.30;;;3.50;99.90;;;;;;5027106;28;20128;-70
2021/01/03 09:35:11;;;;;;;13.75;4.07;;;3.50;99.90;;;;;;4935970;28;20057;-70
2021/01/03 09:37:39;;;;;;;8.60;4.85;;;3.50;99.90;;;;;;4887001;28;20030;-69
2021/01/03 09:40:18;;;;;;;8.30;5.18;;;3.50;99.90;;;;;;4886046;28;21603;-69
2021/01/03 09:43:11;;;;;;;8.20;6.82;;;3.50;99.90;;;;;;4881029;28;20026;-70
2021/01/03 09:45:58;;;;;;;12.45;4.10;;;3.60;99.90;;;;;;4878321;28;20032;-70
2021/01/03 09:48:28;;;;;;;16.50;5.07;;;3.60;99.90;;;;;;5021724;28;20028;-70
2021/01/03 09:51:06;;;;;;;7.57;4.68;;;3.60;99.90;;;;;;5019499;28;20022;-71
2021/01/03 09:53:35;;;;;;;4.97;3.53;;;3.60;99.90;;;;;;5019244;28;20452;-70
2021/01/03 09:56:07;;;;;;;12.43;4.38;;;3.70;99.90;;;;;;5033881;28;20036;-70
2021/01/03 09:58:38;;;;;;;12.70;5.72;;;3.70;99.90;;;;;;5022018;28;20021;-70
2021/01/03 10:01:07;;;;;;;24.23;4.63;;;3.70;99.90;;;;;;5023403;28;20036;-70
2021/01/03 10:03:43;;;;;;;8.27;5.35;;;3.70;99.90;;;;;;5018245;28;20034;-70
2021/01/03 10:06:35;;;;;;;11.80;3.80;;;3.80;99.90;;;;;;5011151;28;20328;-70
2021/01/03 10:09:17;;;;;;;5.47;4.40;;;3.80;99.90;;;;;;5009445;28;20033;-70
2021/01/03 10:11:46;;;;;;;9.82;6.78;;;3.80;99.90;;;;;;5022826;28;20559;-70
2021/01/03 10:14:25;;;;;;;2.67;2.45;;;3.80;99.90;;;;;;5023808;28;20037;-70
2021/01/03 10:16:51;;;;;;;5.07;4.40;;;3.80;99.90;;;;;;5007502;28;20026;-70
2021/01/03 10:19:19;;;;;;;8.10;5.05;;;3.80;99.90;;;;;;5007205;28;20048;-70
2021/01/03 10:21:46;;;;;;;10.38;4.30;;;3.80;99.90;;;;;;5012913;28;20044;-70
2021/01/03 10:24:17;;;;;;;3.70;3.15;;;3.90;99.90;;;;;;5007269;28;20049;-70
2021/01/03 10:26:46;;;;;;;5.82;4.57;;;3.80;99.90;;;;;;5035616;28;20320;-69
2021/01/03 10:29:12;;;;;;;7.32;2.75;;;3.80;99.90;;;;;;5022611;28;20022;-70
2021/01/03 10:31:47;;;;;;;8.43;4.97;;;3.80;99.90;;;;;;5017571;28;20026;-70
2021/01/03 10:34:15;;;;;;;3.80;2.88;;;3.80;99.90;;;;;;5022282;28;20053;-70
2021/01/03 10:36:41;;;;;;;5.57;4.78;;;3.80;99.90;;;;;;5011378;28;20145;-70
2021/01/03 10:39:09;;;;;;;4.53;3.58;;;3.70;99.90;;;;;;5014062;28;20125;-70
2021/01/03 10:41:37;;;;;;;4.32;3.83;;;3.70;99.90;;;;;;5017356;28;20033;-70
2021/01/03 10:44:04;;;;;;;2.35;2.15;;;3.70;99.90;;;;;;5017971;28;20373;-70
2021/01/03 10:46:30;;;;;;;6.40;3.60;;;3.70;99.90;;;;;;5015150;28;20122;-70
2021/01/03 10:48:56;;;;;;;3.88;3.40;;;3.70;99.90;;;;;;5040424;28;20125;-70
2021/01/03 10:51:32;;;;;;;2.93;2.63;;;3.70;99.90;;;;;;5024535;28;20029;-70
2021/01/03 10:53:58;;;;;;;2.08;1.33;;;3.70;99.90;;;;;;5022061;28;20037;-70
2021/01/03 10:56:24;;;;;;;1.47;1.37;;;3.70;99.90;;;;;;5016122;28;20329;-70
2021/01/03 10:58:51;;;;;;;7.53;3.28;;;3.80;99.90;;;;;;5014510;28;20038;-70
2021/01/03 11:01:17;;;;;;;6.57;3.45;;;3.80;99.90;;;;;;5011509;28;20436;-70
2021/01/03 11:03:42;;;;;;;3.17;2.87;;;3.80;99.90;;;;;;5020561;28;20092;-70
2021/01/03 11:06:08;;;;;;;6.57;4.60;;;3.80;99.90;;;;;;5018593;28;20365;-70
2021/01/03 11:08:36;;;;;;;4.78;2.90;;;3.80;99.90;;;;;;5023694;28;20312;-70
2021/01/03 11:11:01;;;;;;;4.90;3.22;;;3.80;99.90;;;;;;5018152;28;20030;-69
2021/01/03 11:13:27;;;;;;;5.47;3.17;;;3.80;99.90;;;;;;5021980;28;20041;-70
2021/01/03 11:15:53;;;;;;;2.20;2.00;;;3.80;99.90;;;;;;5020958;28;20421;-70
2021/01/03 11:18:19;;;;;;;10.00;3.90;;;3.80;99.90;;;;;;5023824;28;20420;-70
2021/01/03 11:20:44;;;;;;;6.73;3.90;;;3.80;99.90;;;;;;5013633;28;20045;-70
2021/01/03 11:23:10;;;;;;;6.23;3.40;;;3.80;99.90;;;;;;5021412;28;20378;-70
2021/01/03 11:25:36;;;;;;;3.50;3.20;;;3.80;99.90;;;;;;5015517;28;20029;-70
2021/01/03 11:28:01;;;;;;;15.20;5.77;;;3.70;99.90;;;;;;5014272;28;20034;-69
2021/01/03 11:30:27;;;;;;;4.07;3.43;;;3.80;99.90;;;;;;5024943;28;20033;-70
2021/01/03 11:32:53;;;;;;;7.35;3.00;;;3.80;99.90;;;;;;5025806;28;20041;-70
2021/01/03 11:35:18;;;;;;;7.00;4.25;;;3.70;99.90;;;;;;5025951;28;20041;-70
2021/01/03 11:37:47;;;;;;;7.72;4.38;;;3.70;99.90;;;;;;5027637;28;20041;-70
2021/01/03 11:40:14;;;;;;;4.03;3.58;;;3.70;99.90;;;;;;5037035;28;20061;-70
2021/01/03 11:42:41;;;;;;;3.47;3.17;;;3.70;99.90;;;;;;5024306;28;20037;-70
2021/01/03 11:45:11;;;;;;;2.92;2.38;;;3.70;99.90;;;;;;5025947;28;20038;-70
2021/01/03 11:47:37;;;;;;;4.82;2.20;;;3.70;99.90;;;;;;4940770;28;20030;-70
2021/01/03 11:50:06;;;;;;;2.87;2.63;;;3.70;99.90;;;;;;5025422;28;20113;-70
2021/01/03 11:52:32;;;;;;;2.25;2.10;;;3.70;99.90;;;;;;5036181;28;20549;-70
2021/01/03 11:54:58;;;;;;;1.80;1.70;;;3.70;99.90;;;;;;5025490;28;20034;-70
2021/01/03 11:57:24;;;;;;;4.00;2.78;;;3.70;99.90;;;;;;5015529;28;20056;-70
2021/01/03 11:59:50;;;;;;;2.22;2.03;;;3.70;99.90;;;;;;5031411;28;20314;-70
2021/01/03 12:02:16;;;;;;;2.23;2.03;;;3.70;99.90;;;;;;5013530;28;20096;-70
2021/01/03 12:04:42;;;;;;;3.23;2.93;;;3.70;99.90;;;;;;5010345;28;20109;-70
2021/01/03 12:07:10;;;;;;;2.03;1.85;;;3.70;99.90;;;;;;5014801;28;20352;-70
2021/01/03 12:09:37;;;;;;;1.75;1.65;;;3.70;99.90;;;;;;5008829;28;20429;-69
2021/01/03 12:12:06;;;;;;;5.32;2.00;;;3.80;99.90;;;;;;4976290;28;20043;-70
2021/01/03 12:14:32;;;;;;;9.70;2.42;;;3.70;99.90;;;;;;5003243;28;20044;-69
2021/01/03 12:17:01;;;;;;;2.15;1.85;;;3.80;99.90;;;;;;5016229;28;20440;-70
2021/01/03 12:19:27;;;;;;;1.85;1.75;;;3.80;99.90;;;;;;5010877;28;20068;-69
2021/01/03 12:21:57;;;;;;;4.18;2.20;;;3.80;99.90;;;;;;5014690;28;20033;-70
2021/01/03 12:24:22;;;;;;;1.48;1.17;;;3.80;99.90;;;;;;5013158;28;20121;-69
2021/01/03 12:26:48;;;;;;;2.03;0.57;;;3.80;99.90;;;;;;5008898;28;20117;-69
2021/01/03 12:29:15;;;;;;;1.57;1.47;;;3.80;99.90;;;;;;5026551;28;20032;-70
2021/01/03 12:31:47;;;;;;;4.22;1.80;;;3.80;99.90;;;;;;5024215;28;20519;-69
2021/01/03 12:34:16;;;;;;;2.60;2.05;;;3.90;99.90;;;;;;5026361;28;20032;-69
2021/01/03 12:36:41;;;;;;;3.05;1.98;;;3.90;99.90;;;;;;5026429;28;20052;-70
2021/01/03 12:39:10;;;;;;;3.72;1.52;;;4.00;99.90;;;;;;5044640;28;20037;-70
2021/01/03 12:41:36;;;;;;;4.32;2.45;;;3.90;99.90;;;;;;5017139;28;20066;-69
2021/01/03 12:44:04;;;;;;;1.23;1.17;;;3.90;99.90;;;;;;5022381;28;20037;-70
2021/01/03 12:46:36;;;;;;;6.32;2.25;;;3.90;99.90;;;;;;5020652;28;20036;-69
2021/01/03 12:49:03;;;;;;;1.17;0.98;;;3.90;99.90;;;;;;5020871;28;20112;-69
2021/01/03 12:51:29;;;;;;;14.57;2.45;;;4.00;99.90;;;;;;5029916;28;20056;-70
2021/01/03 12:53:55;;;;;;;3.38;2.25;;;4.00;99.90;;;;;;5042397;28;20037;-70
2021/01/03 12:56:24;;;;;;;1.42;1.35;;;4.00;99.90;;;;;;5025773;28;20030;-70
2021/01/03 12:58:55;;;;;;;3.78;2.50;;;4.00;99.90;;;;;;5016623;28;20037;-70
2021/01/03 13:01:26;;;;;;;4.07;2.45;;;4.10;99.90;;;;;;5013898;28;20033;-71
2021/01/03 13:03:52;;;;;;;4.30;1.60;;;4.10;99.90;;;;;;5041786;28;20033;-70
2021/01/03 13:06:18;;;;;;;20.10;3.10;;;4.20;99.90;;;;;;5019173;28;20054;-69
2021/01/03 13:08:44;;;;;;;2.47;2.15;;;4.10;99.90;;;;;;5042555;28;20336;-70
2021/01/03 13:11:10;;;;;;;1.58;1.48;;;4.10;99.90;;;;;;5023768;28;20158;-70
2021/01/03 13:13:36;;;;;;;2.67;2.43;;;4.20;99.90;;;;;;5020539;28;20026;-70
2021/01/03 13:16:03;;;;;;;5.20;2.23;;;4.20;99.90;;;;;;4973911;28;20813;-70
2021/01/03 13:18:29;;;;;;;1.92;1.58;;;4.20;99.90;;;;;;5025822;28;20071;-69
2021/01/03 13:20:55;;;;;;;2.63;2.40;;;4.20;99.90;;;;;;5044261;28;20318;-70